Decoded Metar for SGES (GUARANY in PARAGUAY) (IATA:N/A) | Meteo·Mobile Aviation Weather
aviador You're here:

SGES Decoded Metar

GUARANY in PARAGUAY
Report Time2018-12-17 15:00:00
UTC Time2018-12-17 15:18:34
Flight Rules vfr VFR
Wind030° at 10 kt
W.Decomp.*RWY 05: 10.0 kt HW 0.9 kt LCW
W.Rank030° ranks 8
Current wind is above 030° avg. (8.0)
Visibility9999 m
Phenomena:N/A
Clouds:Few 027 Hf
Expected CloudBase > 4,400 ft AGL from Temp-Dew spread
CeilingNone
Temp35°C (ISA +26)
Dew Point24°C (53% RH)
Heat Index41.9°C
QNH1013 hPa
Density Alt6,070 ft
Elevation2,785 ft
Report Wrong Elevation
Raw Report
SGES 171500Z 03010KT 9999 FEW027 35/24 Q1013=

Extra information for SGES:More info

Metar Taf Metar & Taf Last 4 Metars F.Rules Stats Wind Profile Meteogram Temp Stats Airport Information Weather charts Add Link Nearby VenuesMetar ALERT Operation Metar Decoded Social comments